createdAt,value
2017-10-20T00:01:00.833Z,6.83
2017-10-20T00:03:28.421Z,8.60
2017-10-20T00:05:56.067Z,8.10
2017-10-20T00:08:23.665Z,8.10
2017-10-20T00:10:51.297Z,7.03
2017-10-20T00:13:18.883Z,7.27
2017-10-20T00:15:47.295Z,7.30
2017-10-20T00:18:15.659Z,7.47
2017-10-20T00:20:44.067Z,8.40
2017-10-20T00:23:11.660Z,7.33
2017-10-20T00:25:39.315Z,8.57
2017-10-20T00:28:06.908Z,8.23
2017-10-20T00:30:34.545Z,8.50
2017-10-20T00:33:02.157Z,10.10
2017-10-20T00:35:29.803Z,9.17
2017-10-20T00:37:58.167Z,9.03
2017-10-20T00:40:25.762Z,7.53
2017-10-20T00:42:54.166Z,9.10
2017-10-20T00:45:21.764Z,7.60
2017-10-20T00:47:49.413Z,6.63
2017-10-20T00:50:17.011Z,7.97
2017-10-20T00:52:45.419Z,8.73
2017-10-20T00:55:13.012Z,7.67
2017-10-20T00:57:40.643Z,8.10
2017-10-20T01:00:08.244Z,9.40
2017-10-20T01:02:35.891Z,9.23
2017-10-20T01:05:03.504Z,9.70
2017-10-20T01:07:31.911Z,8.20
2017-10-20T01:09:59.508Z,8.53
2017-10-20T01:12:27.169Z,8.90
2017-10-20T01:14:54.765Z,9.50
2017-10-20T01:17:23.128Z,8.33
2017-10-20T01:19:50.774Z,8.80
2017-10-20T01:22:18.381Z,9.10
2017-10-20T01:24:46.054Z,8.63
2017-10-20T01:27:13.651Z,8.50
2017-10-20T01:29:41.294Z,8.50
2017-10-20T01:32:08.889Z,9.33
2017-10-20T01:34:36.524Z,7.40
2017-10-20T01:37:04.121Z,7.07
2017-10-20T01:39:31.760Z,5.47
2017-10-20T01:41:59.362Z,5.93
2017-10-20T01:44:27.774Z,5.40
2017-10-20T01:46:55.369Z,5.80
2017-10-20T01:49:23.019Z,6.73
2017-10-20T01:51:50.613Z,7.13
2017-10-20T01:54:18.204Z,7.60
2017-10-20T01:56:45.848Z,6.90
2017-10-20T01:59:14.209Z,7.70
2017-10-20T02:01:41.850Z,8.20
2017-10-20T02:04:09.445Z,7.57
2017-10-20T02:06:37.853Z,7.70
2017-10-20T02:09:05.446Z,7.70
2017-10-20T02:11:33.090Z,8.73
2017-10-20T02:14:00.693Z,7.47
2017-10-20T02:16:28.333Z,7.80
2017-10-20T02:18:55.937Z,6.07
2017-10-20T02:21:24.340Z,6.90
2017-10-20T02:23:51.942Z,6.50
2017-10-20T02:26:19.571Z,6.97
2017-10-20T02:28:47.165Z,5.70
2017-10-20T02:31:14.799Z,5.57
2017-10-20T02:33:42.404Z,8.07
2017-10-20T02:36:10.044Z,8.13
2017-10-20T02:38:37.633Z,7.57
2017-10-20T02:41:06.032Z,8.87
2017-10-20T02:43:33.620Z,8.53
2017-10-20T02:46:01.260Z,8.83
2017-10-20T02:48:28.952Z,9.07
2017-10-20T02:50:56.595Z,9.00
2017-10-20T02:53:24.202Z,9.20
2017-10-20T02:55:51.848Z,9.30
2017-10-20T02:58:19.449Z,9.00
2017-10-20T03:00:47.850Z,7.30
2017-10-20T03:03:15.450Z,7.53
2017-10-20T03:05:43.084Z,7.70
2017-10-20T03:08:10.685Z,8.13
2017-10-20T03:10:39.098Z,9.20
2017-10-20T03:13:07.458Z,9.20
2017-10-20T03:15:35.875Z,9.60
2017-10-20T03:18:03.478Z,10.70
2017-10-20T03:20:31.114Z,7.70
2017-10-20T03:22:58.722Z,9.17
2017-10-20T03:25:26.353Z,8.90
2017-10-20T03:27:53.950Z,16.27
2017-10-20T03:30:22.375Z,14.90
2017-10-20T03:32:49.973Z,8.57
2017-10-20T03:35:17.579Z,7.67
2017-10-20T03:37:45.214Z,6.33
2017-10-20T03:40:13.582Z,9.03
2017-10-20T03:42:41.226Z,9.50
2017-10-20T03:45:08.821Z,9.63
2017-10-20T03:47:37.223Z,11.70
2017-10-20T03:50:04.822Z,11.47
2017-10-20T03:52:32.459Z,11.00
2017-10-20T03:55:00.064Z,11.10
2017-10-20T03:57:27.704Z,9.07
2017-10-20T03:59:55.306Z,9.00
2017-10-20T04:02:23.713Z,10.00
2017-10-20T04:04:51.308Z,10.53
2017-10-20T04:07:18.954Z,10.20
2017-10-20T04:09:46.571Z,8.90
2017-10-20T04:12:15.002Z,9.97
2017-10-20T04:14:42.601Z,9.53
2017-10-20T04:17:10.202Z,9.93
2017-10-20T04:19:37.852Z,10.97
2017-10-20T04:22:05.452Z,11.90
2017-10-20T04:24:33.097Z,11.33
2017-10-20T04:27:00.692Z,10.80
2017-10-20T04:29:28.432Z,9.80
2017-10-20T04:31:56.048Z,10.60
2017-10-20T04:34:24.461Z,8.77
2017-10-20T04:36:52.064Z,9.30
2017-10-20T04:39:19.701Z,9.20
2017-10-20T04:41:47.297Z,8.83
2017-10-20T04:44:14.936Z,8.60
2017-10-20T04:46:42.532Z,8.67
2017-10-20T04:49:10.936Z,8.33
2017-10-20T04:51:38.585Z,8.50
2017-10-20T04:54:06.181Z,7.60
2017-10-20T04:56:33.816Z,7.00
2017-10-20T04:59:01.481Z,9.33
2017-10-20T05:01:29.070Z,8.20
2017-10-20T05:03:56.668Z,7.93
2017-10-20T05:06:24.318Z,8.50
2017-10-20T05:08:51.918Z,9.17
2017-10-20T05:11:19.513Z,9.03
2017-10-20T05:13:47.155Z,9.17
2017-10-20T05:16:14.834Z,8.67
2017-10-20T05:18:42.473Z,7.80
2017-10-20T05:21:10.065Z,8.17
2017-10-20T05:23:37.704Z,8.00
2017-10-20T05:26:05.343Z,8.10
2017-10-20T05:28:32.946Z,7.83
2017-10-20T05:31:00.585Z,8.47
2017-10-20T05:33:28.240Z,8.80
2017-10-20T05:35:55.834Z,9.20
2017-10-20T05:38:23.488Z,7.97
2017-10-20T05:40:51.158Z,8.07
2017-10-20T05:43:18.795Z,6.77
2017-10-20T05:45:46.389Z,8.07
2017-10-20T05:48:14.030Z,7.70
2017-10-20T05:50:41.633Z,6.23
2017-10-20T05:53:09.265Z,7.90
2017-10-20T05:55:36.870Z,8.00
2017-10-20T05:58:05.298Z,7.70
2017-10-20T06:00:32.892Z,6.97
2017-10-20T06:03:00.529Z,7.63
2017-10-20T06:05:28.184Z,8.17
2017-10-20T06:07:55.821Z,7.67
2017-10-20T06:10:23.427Z,6.93
2017-10-20T06:12:51.201Z,7.60
2017-10-20T06:15:19.763Z,8.17
2017-10-20T06:17:47.422Z,8.33
2017-10-20T06:20:15.015Z,8.20
2017-10-20T06:22:42.681Z,7.33
2017-10-20T06:25:10.271Z,7.80
2017-10-20T06:27:37.871Z,8.00
2017-10-20T06:30:05.514Z,7.93
2017-10-20T06:32:33.109Z,7.73
2017-10-20T06:35:00.750Z,8.23
2017-10-20T06:37:28.343Z,8.10
2017-10-20T06:39:55.997Z,7.73
2017-10-20T06:42:24.362Z,7.37
2017-10-20T06:44:52.010Z,7.70
2017-10-20T06:47:19.620Z,7.57
2017-10-20T06:49:48.034Z,6.90
2017-10-20T06:52:15.664Z,7.53
2017-10-20T06:54:44.064Z,6.53
2017-10-20T06:57:11.663Z,7.30
2017-10-20T06:59:39.296Z,7.27
2017-10-20T07:02:06.976Z,7.60
2017-10-20T07:04:34.628Z,7.60
2017-10-20T07:07:02.225Z,7.80
2017-10-20T07:09:30.061Z,7.27
2017-10-20T07:11:57.657Z,7.50
2017-10-20T07:14:25.293Z,7.20
2017-10-20T07:16:52.890Z,7.83
2017-10-20T07:19:28.841Z,8.17
2017-10-20T07:21:56.441Z,7.90
2017-10-20T07:24:24.077Z,9.07
2017-10-20T07:26:52.444Z,8.10
2017-10-20T07:29:20.089Z,8.20
2017-10-20T07:31:47.688Z,8.80
2017-10-20T07:34:16.057Z,7.60
2017-10-20T07:36:44.460Z,9.20
2017-10-20T07:39:12.159Z,10.23
2017-10-20T07:41:39.789Z,9.50
2017-10-20T07:44:07.397Z,9.17
2017-10-20T07:46:35.806Z,8.40
2017-10-20T07:49:04.169Z,14.00
2017-10-20T07:51:31.805Z,13.37
2017-10-20T07:53:59.406Z,12.67
2017-10-20T07:56:27.814Z,17.10
2017-10-20T07:58:55.425Z,10.90
2017-10-20T08:01:23.074Z,10.00
2017-10-20T08:03:50.670Z,6.87
2017-10-20T08:06:19.084Z,10.90
2017-10-20T08:08:46.688Z,17.00
2017-10-20T08:11:14.333Z,15.60
2017-10-20T08:13:41.934Z,11.40
2017-10-20T08:16:10.293Z,7.20
2017-10-20T08:18:37.925Z,6.77
2017-10-20T08:21:05.637Z,8.90
2017-10-20T08:23:33.997Z,8.80
2017-10-20T08:26:01.598Z,6.20
2017-10-20T08:28:29.247Z,5.67
2017-10-20T08:30:57.640Z,5.30
2017-10-20T08:33:25.275Z,5.23
2017-10-20T08:35:53.126Z,6.30
2017-10-20T08:38:21.556Z,5.43
2017-10-20T08:40:49.341Z,4.90
2017-10-20T08:43:17.431Z,5.90
2017-10-20T08:45:45.032Z,5.77
2017-10-20T08:48:13.442Z,6.10
2017-10-20T08:50:41.040Z,5.03
2017-10-20T08:53:08.678Z,5.70
2017-10-20T08:55:36.279Z,5.80
2017-10-20T08:58:04.690Z,5.47
2017-10-20T09:00:32.281Z,5.47
2017-10-20T09:02:59.926Z,6.10
2017-10-20T09:05:27.524Z,5.80
2017-10-20T09:07:55.167Z,5.30
2017-10-20T09:10:22.774Z,5.73
2017-10-20T09:12:51.185Z,5.10
2017-10-20T09:15:18.777Z,5.03
2017-10-20T09:17:46.414Z,5.57
2017-10-20T09:20:14.004Z,6.40
2017-10-20T09:22:41.646Z,5.17
2017-10-20T09:25:09.246Z,5.47
2017-10-20T09:27:36.887Z,5.37
2017-10-20T09:30:04.490Z,5.47
2017-10-20T09:32:32.902Z,5.10
2017-10-20T09:35:00.505Z,6.03
2017-10-20T09:37:28.137Z,4.70
2017-10-20T09:39:55.729Z,5.17
2017-10-20T09:42:23.390Z,4.63
2017-10-20T09:44:50.994Z,4.57
2017-10-20T09:47:18.585Z,7.20
2017-10-20T09:49:46.225Z,5.40
2017-10-20T09:52:13.816Z,3.97
2017-10-20T09:54:41.452Z,4.77
2017-10-20T09:57:09.036Z,4.13
2017-10-20T09:59:36.676Z,4.43
2017-10-20T10:02:04.273Z,3.97
2017-10-20T10:04:31.913Z,4.30
2017-10-20T10:06:59.502Z,4.20
2017-10-20T10:09:27.867Z,4.83
2017-10-20T10:11:55.474Z,4.10
2017-10-20T10:14:23.116Z,4.43
2017-10-20T10:16:51.471Z,4.57
2017-10-20T10:19:19.101Z,4.40
2017-10-20T10:21:46.692Z,4.00
2017-10-20T10:24:14.325Z,4.37
2017-10-20T10:26:41.922Z,4.33
2017-10-20T10:29:09.565Z,5.10
2017-10-20T10:31:37.269Z,3.90
2017-10-20T10:34:05.677Z,4.60
2017-10-20T10:36:33.272Z,4.47
2017-10-20T10:39:01.103Z,4.70
2017-10-20T10:41:28.696Z,4.73
2017-10-20T10:43:56.290Z,4.13
2017-10-20T10:46:24.693Z,3.80
2017-10-20T10:48:52.285Z,3.70
2017-10-20T10:51:19.922Z,4.13
2017-10-20T10:53:47.781Z,3.80
2017-10-20T10:56:15.373Z,4.00
2017-10-20T10:58:42.962Z,3.20
2017-10-20T11:01:10.592Z,4.10
2017-10-20T11:03:38.187Z,3.70
2017-10-20T11:06:17.774Z,3.73
2017-10-20T11:08:57.341Z,3.50
2017-10-20T11:11:36.867Z,3.87
2017-10-20T11:14:04.461Z,3.37
2017-10-20T11:16:32.089Z,3.50
2017-10-20T11:18:59.676Z,3.40
2017-10-20T11:21:27.430Z,3.50
2017-10-20T11:23:55.032Z,3.53
2017-10-20T11:26:22.705Z,3.73
2017-10-20T11:28:51.060Z,3.60
2017-10-20T11:31:19.470Z,3.67
2017-10-20T11:33:47.821Z,3.93
2017-10-20T11:36:16.965Z,5.23
2017-10-20T11:38:44.563Z,3.70
2017-10-20T11:41:12.205Z,3.70
2017-10-20T11:43:39.873Z,3.70
2017-10-20T11:46:07.510Z,3.37
2017-10-20T11:48:35.096Z,3.67
2017-10-20T11:51:02.733Z,3.63
2017-10-20T11:53:30.324Z,3.90
2017-10-20T11:59:00.132Z,4.20
2017-10-20T12:01:27.814Z,3.17
2017-10-20T12:03:55.438Z,4.10
2017-10-20T12:06:23.831Z,3.60
2017-10-20T12:08:51.416Z,3.10
2017-10-20T12:11:19.044Z,3.50
2017-10-20T12:13:47.395Z,3.33
2017-10-20T12:16:15.040Z,3.27
2017-10-20T12:18:42.642Z,3.60
2017-10-20T12:21:11.047Z,3.43
2017-10-20T12:23:38.646Z,3.20
2017-10-20T12:26:06.283Z,3.20
2017-10-20T12:28:33.874Z,3.20
2017-10-20T12:31:01.528Z,3.30
2017-10-20T12:33:29.119Z,2.97
2017-10-20T12:35:57.476Z,3.63
2017-10-20T12:38:25.108Z,3.93
2017-10-20T12:40:52.768Z,2.90
2017-10-20T12:43:20.360Z,3.77
2017-10-20T12:45:48.766Z,3.50
2017-10-20T12:48:17.128Z,3.17
2017-10-20T12:50:44.774Z,3.60
2017-10-20T12:53:12.407Z,2.80
2017-10-20T12:55:39.997Z,3.30
2017-10-20T12:58:07.628Z,3.90
2017-10-20T13:00:35.217Z,4.10
2017-10-20T13:03:02.848Z,3.57
2017-10-20T13:05:30.437Z,4.40
2017-10-20T13:07:58.180Z,3.50
2017-10-20T13:10:25.783Z,3.70
2017-10-20T13:12:53.381Z,3.03
2017-10-20T13:15:21.018Z,3.20
2017-10-20T13:17:49.368Z,3.30
2017-10-20T13:20:17.003Z,4.00
2017-10-20T13:22:44.599Z,3.77
2017-10-20T13:25:12.242Z,3.63
2017-10-20T13:27:40.020Z,3.30
2017-10-20T13:30:07.655Z,3.33
2017-10-20T13:32:35.249Z,3.90
2017-10-20T13:35:02.889Z,3.20
2017-10-20T13:37:30.483Z,8.60
2017-10-20T13:39:58.889Z,3.73
2017-10-20T13:42:26.493Z,3.23
2017-10-20T13:44:54.136Z,3.40
2017-10-20T13:47:21.728Z,3.50
2017-10-20T13:49:49.362Z,3.23
2017-10-20T13:52:16.957Z,3.83
2017-10-20T13:54:45.353Z,3.10
2017-10-20T13:57:13.719Z,3.20
2017-10-20T13:59:41.344Z,3.40
2017-10-20T14:02:08.935Z,4.10
2017-10-20T14:04:37.337Z,3.60
2017-10-20T14:07:05.691Z,3.23
2017-10-20T14:09:34.100Z,3.30
2017-10-20T14:12:02.463Z,3.10
2017-10-20T14:14:30.865Z,2.80
2017-10-20T14:16:59.226Z,3.03
2017-10-20T14:19:26.870Z,3.73
2017-10-20T14:21:55.964Z,4.17
2017-10-20T14:24:23.601Z,3.87
2017-10-20T14:26:51.202Z,3.07
2017-10-20T14:29:19.564Z,3.97
2017-10-20T14:31:47.197Z,3.57
2017-10-20T14:34:14.909Z,3.53
2017-10-20T14:36:42.754Z,3.10
2017-10-20T14:39:10.356Z,4.03
2017-10-20T14:41:38.760Z,4.77
2017-10-20T14:44:06.451Z,3.70
2017-10-20T14:46:34.098Z,3.27
2017-10-20T14:49:01.698Z,3.00
2017-10-20T14:51:29.348Z,3.17
2017-10-20T14:53:56.942Z,3.20
2017-10-20T14:56:25.306Z,3.57
2017-10-20T14:58:53.706Z,3.43
2017-10-20T15:01:22.070Z,4.13
2017-10-20T15:03:50.464Z,3.57
2017-10-20T15:06:18.876Z,3.60
2017-10-20T15:08:46.465Z,2.90
2017-10-20T15:11:14.102Z,3.77
2017-10-20T15:13:41.693Z,3.83
2017-10-20T15:16:10.060Z,2.93
2017-10-20T15:18:37.703Z,3.37
2017-10-20T15:21:05.300Z,3.70
2017-10-20T15:23:32.931Z,3.27
2017-10-20T15:26:00.569Z,2.97
2017-10-20T15:28:28.161Z,3.13
2017-10-20T15:30:55.792Z,3.80
2017-10-20T15:33:23.389Z,4.23
2017-10-20T15:35:51.207Z,4.00
2017-10-20T15:38:18.800Z,3.73
2017-10-20T15:40:46.388Z,3.23
2017-10-20T15:43:14.785Z,4.10
2017-10-20T15:45:43.143Z,5.30
2017-10-20T15:48:11.600Z,4.37
2017-10-20T15:50:39.199Z,4.90
2017-10-20T15:53:07.601Z,5.07
2017-10-20T15:55:35.961Z,5.30
2017-10-20T15:58:04.365Z,6.57
2017-10-20T16:00:31.968Z,11.27
2017-10-20T16:02:59.608Z,14.63
2017-10-20T16:05:27.212Z,20.60
2017-10-20T16:07:55.626Z,14.50
2017-10-20T16:10:23.993Z,10.43
2017-10-20T16:12:52.389Z,10.67
2017-10-20T16:15:20.750Z,9.73
2017-10-20T16:17:49.152Z,9.50
2017-10-20T16:20:16.740Z,7.57
2017-10-20T16:22:44.374Z,6.60
2017-10-20T16:25:11.970Z,5.63
2017-10-20T16:27:39.601Z,5.50
2017-10-20T16:30:07.195Z,4.83
2017-10-20T16:32:34.829Z,4.47
2017-10-20T16:35:02.429Z,4.50
2017-10-20T16:37:30.173Z,4.87
2017-10-20T16:39:57.771Z,11.40
2017-10-20T16:42:25.406Z,5.70
2017-10-20T16:44:53.010Z,6.83
2017-10-20T16:47:21.411Z,5.50
2017-10-20T16:49:49.001Z,5.07
2017-10-20T16:52:16.658Z,5.50
2017-10-20T16:54:44.252Z,4.13
2017-10-20T16:57:11.884Z,4.03
2017-10-20T16:59:39.481Z,3.87
2017-10-20T17:02:07.901Z,4.60
2017-10-20T17:04:35.498Z,5.30
2017-10-20T17:07:03.133Z,4.47
2017-10-20T17:09:31.558Z,3.60
2017-10-20T17:12:00.697Z,4.13
2017-10-20T17:14:28.305Z,5.10
2017-10-20T17:16:55.937Z,3.63
2017-10-20T17:19:23.532Z,4.00
2017-10-20T17:21:51.174Z,4.07
2017-10-20T17:24:18.772Z,3.10
2017-10-20T17:26:46.407Z,3.53
2017-10-20T17:29:14.038Z,3.47
2017-10-20T17:31:41.642Z,3.80
2017-10-20T17:34:10.044Z,3.57
2017-10-20T17:36:38.405Z,4.40
2017-10-20T17:39:06.052Z,4.13
2017-10-20T17:41:33.641Z,4.20
2017-10-20T17:44:02.041Z,4.63
2017-10-20T17:46:30.394Z,3.73
2017-10-20T17:48:59.526Z,3.80
2017-10-20T17:51:27.122Z,5.23
2017-10-20T17:53:54.752Z,4.10
2017-10-20T17:56:22.351Z,3.90
2017-10-20T17:58:49.988Z,3.27
2017-10-20T18:01:17.659Z,3.63
2017-10-20T18:03:45.502Z,4.27
2017-10-20T18:06:13.088Z,5.27
2017-10-20T18:08:40.680Z,3.83
2017-10-20T18:11:08.308Z,3.50
2017-10-20T18:13:35.897Z,3.70
2017-10-20T18:16:03.613Z,3.80
2017-10-20T18:18:31.214Z,4.37
2017-10-20T18:20:58.848Z,4.43
2017-10-20T18:23:26.441Z,3.80
2017-10-20T18:25:54.079Z,4.50
2017-10-20T18:28:21.669Z,4.10
2017-10-20T18:30:50.837Z,3.90
2017-10-20T18:33:18.425Z,4.30
2017-10-20T18:35:47.577Z,3.90
2017-10-20T18:38:15.970Z,4.63
2017-10-20T18:40:43.602Z,4.47
2017-10-20T18:43:11.200Z,4.37
2017-10-20T18:45:40.437Z,5.00
2017-10-20T18:48:08.802Z,6.30
2017-10-20T18:50:38.304Z,5.03
2017-10-20T18:53:06.996Z,5.20
2017-10-20T18:55:35.393Z,5.03
2017-10-20T18:58:02.989Z,4.80
2017-10-20T19:00:33.416Z,4.43
2017-10-20T19:03:01.021Z,4.53
2017-10-20T19:05:29.578Z,6.00
2017-10-20T19:07:57.212Z,5.00
2017-10-20T19:10:24.798Z,4.90
2017-10-20T19:12:52.467Z,4.90
2017-10-20T19:15:20.098Z,5.63
2017-10-20T19:17:50.352Z,4.80
2017-10-20T19:20:17.993Z,4.90
2017-10-20T19:22:45.582Z,5.40
2017-10-20T19:25:13.226Z,6.20
2017-10-20T19:27:40.817Z,5.60
2017-10-20T19:30:08.454Z,5.23
2017-10-20T19:32:36.046Z,6.20
2017-10-20T19:35:03.685Z,4.90
2017-10-20T19:37:31.269Z,4.60
2017-10-20T19:39:58.930Z,4.60
2017-10-20T19:42:26.532Z,5.43
2017-10-20T19:44:54.141Z,6.37
2017-10-20T19:47:21.774Z,5.10
2017-10-20T19:49:49.404Z,5.50
2017-10-20T19:52:17.765Z,6.43
2017-10-20T19:54:46.908Z,5.57
2017-10-20T19:57:14.509Z,6.10
2017-10-20T19:59:42.142Z,5.87
2017-10-20T20:02:09.742Z,7.30
2017-10-20T20:04:41.875Z,8.93
2017-10-20T20:07:09.468Z,7.97
2017-10-20T20:09:38.608Z,7.87
2017-10-20T20:12:06.201Z,5.53
2017-10-20T20:14:33.848Z,6.47
2017-10-20T20:17:01.442Z,5.53
2017-10-20T20:19:30.551Z,5.77
2017-10-20T20:21:58.957Z,7.27
2017-10-20T20:24:27.319Z,6.20
2017-10-20T20:26:55.752Z,5.60
2017-10-20T20:29:23.341Z,7.23
2017-10-20T20:31:51.770Z,5.83
2017-10-20T20:34:19.363Z,6.23
2017-10-20T20:36:46.992Z,6.30
2017-10-20T20:39:14.597Z,6.33
2017-10-20T20:41:42.228Z,5.80
2017-10-20T20:44:09.828Z,5.60
2017-10-20T20:46:37.889Z,6.40
2017-10-20T20:49:05.754Z,7.17
2017-10-20T20:51:34.497Z,11.33
2017-10-20T20:54:02.099Z,7.30
2017-10-20T20:56:29.749Z,8.23
2017-10-20T20:58:57.348Z,9.87
2017-10-20T21:01:53.533Z,7.90
2017-10-20T21:04:21.125Z,8.03
2017-10-20T21:06:48.809Z,5.87
2017-10-20T21:09:16.395Z,5.43
2017-10-20T21:11:44.026Z,6.90
2017-10-20T21:14:11.616Z,7.40
2017-10-20T21:16:39.251Z,7.33
2017-10-20T21:19:06.861Z,6.73
2017-10-20T21:21:34.500Z,8.50
2017-10-20T21:24:02.856Z,14.97
2017-10-20T21:26:30.501Z,15.30
2017-10-20T21:28:58.867Z,15.63
2017-10-20T21:31:26.510Z,12.43
2017-10-20T21:33:54.113Z,10.30
2017-10-20T21:36:21.749Z,10.57
2017-10-20T21:38:49.342Z,17.17
2017-10-20T21:41:17.746Z,11.87
2017-10-20T21:43:45.346Z,9.57
2017-10-20T21:46:12.982Z,7.40
2017-10-20T21:48:40.582Z,7.07
2017-10-20T21:51:08.228Z,11.87
2017-10-20T21:53:35.834Z,14.10
2017-10-20T21:56:04.237Z,16.20
2017-10-20T21:58:31.832Z,10.80
2017-10-20T22:00:59.490Z,11.00
2017-10-20T22:03:27.089Z,20.20
2017-10-20T22:05:55.501Z,14.20
2017-10-20T22:08:23.098Z,11.80
2017-10-20T22:10:50.917Z,12.13
2017-10-20T22:13:19.279Z,11.40
2017-10-20T22:15:47.648Z,11.70
2017-10-20T22:18:15.287Z,8.70
2017-10-20T22:20:42.882Z,12.07
2017-10-20T22:23:11.292Z,11.73
2017-10-20T22:25:38.890Z,12.73
2017-10-20T22:28:06.529Z,7.90
2017-10-20T22:30:34.121Z,7.83
2017-10-20T22:33:01.752Z,6.83
2017-10-20T22:35:29.349Z,11.13
2017-10-20T22:37:57.072Z,13.03
2017-10-20T22:40:24.665Z,16.23
2017-10-20T22:42:52.302Z,12.83
2017-10-20T22:45:19.891Z,9.40
2017-10-20T22:47:47.514Z,6.30
2017-10-20T22:50:15.194Z,8.87
2017-10-20T22:52:42.931Z,10.10
2017-10-20T22:55:10.521Z,17.60
2017-10-20T22:57:38.164Z,12.27
2017-10-20T23:00:05.752Z,7.73
2017-10-20T23:02:33.386Z,6.67
2017-10-20T23:05:00.979Z,6.17
2017-10-20T23:07:28.635Z,6.03
2017-10-20T23:09:56.219Z,6.53
2017-10-20T23:12:23.817Z,6.10
2017-10-20T23:14:51.466Z,7.27
2017-10-20T23:17:19.863Z,6.53
2017-10-20T23:19:47.458Z,7.63
2017-10-20T23:22:15.094Z,8.00
2017-10-20T23:24:42.699Z,31.13
2017-10-20T23:27:10.341Z,34.23
2017-10-20T23:29:37.933Z,14.63
2017-10-20T23:32:07.165Z,12.47
2017-10-20T23:34:34.857Z,8.07
2017-10-20T23:37:02.680Z,7.03
2017-10-20T23:39:31.037Z,6.57
2017-10-20T23:41:59.489Z,7.00
2017-10-20T23:44:27.115Z,8.53
2017-10-20T23:46:54.708Z,7.00
2017-10-20T23:49:22.342Z,8.03
2017-10-20T23:51:49.940Z,9.23
2017-10-20T23:54:17.572Z,9.40
2017-10-20T23:56:45.169Z,13.50
2017-10-20T23:59:12.812Z,17.40
